Time;durP1;ratioP1;P1;durP2;ratioP2;P2;SDS_P1;SDS_P2;PMS_P1;PMS_P2;Temp;Humidity;BMP_temperature;BMP_pressure;BME280_temperature;BME280_humidity;BME280_pressure;Samples;Min_cycle;Max_cycle;Signal;HPM_P1;HPM_P2
2021/11/24 00:01:12;;;;;;;5.25;4.28;;;8.80;88.90;;;;;;5094703;28;20372;-75
2021/11/24 00:03:38;;;;;;;5.63;4.45;;;8.70;88.90;;;;;;5094827;28;20480;-75
2021/11/24 00:06:03;;;;;;;5.68;4.40;;;8.70;88.90;;;;;;5094681;28;20169;-76
2021/11/24 00:08:30;;;;;;;4.88;3.75;;;8.70;89.00;;;;;;5094516;28;20032;-75
2021/11/24 00:10:56;;;;;;;4.47;3.60;;;8.60;88.90;;;;;;5094520;28;20034;-75
2021/11/24 00:13:21;;;;;;;4.95;3.70;;;8.60;89.00;;;;;;5094174;28;20024;-75
2021/11/24 00:15:47;;;;;;;5.72;4.15;;;8.60;89.00;;;;;;5094359;28;20451;-75
2021/11/24 00:18:13;;;;;;;5.57;4.25;;;8.50;88.90;;;;;;5091329;28;20115;-75
2021/11/24 00:20:38;;;;;;;9.65;4.60;;;8.50;89.00;;;;;;5094254;28;20426;-76
2021/11/24 00:23:04;;;;;;;7.25;4.40;;;8.50;88.90;;;;;;5093952;28;20016;-75
2021/11/24 00:25:30;;;;;;;6.85;4.47;;;8.50;88.90;;;;;;5093966;28;20047;-75
2021/11/24 00:27:55;;;;;;;5.45;4.22;;;8.50;88.90;;;;;;5095198;28;20074;-75
2021/11/24 00:30:21;;;;;;;5.28;4.32;;;8.50;88.90;;;;;;5093927;28;20024;-75
2021/11/24 00:32:47;;;;;;;5.90;4.50;;;8.50;88.90;;;;;;5095139;28;20020;-76
2021/11/24 00:35:12;;;;;;;5.65;4.32;;;8.50;88.90;;;;;;5093730;28;20039;-76
2021/11/24 00:37:38;;;;;;;6.25;4.68;;;8.50;88.80;;;;;;5093888;28;20077;-75
2021/11/24 00:40:05;;;;;;;6.25;4.63;;;8.50;88.80;;;;;;5093766;28;20379;-76
2021/11/24 00:42:31;;;;;;;6.20;4.57;;;8.50;88.70;;;;;;5093657;28;20117;-75
2021/11/24 00:48:19;;;;;;;5.47;4.05;;;8.50;88.60;;;;;;5095360;28;20089;-75
2021/11/24 00:50:44;;;;;;;4.60;3.47;;;8.50;88.60;;;;;;5093813;28;20019;-75
2021/11/24 00:53:10;;;;;;;4.80;3.78;;;8.50;88.60;;;;;;5093438;28;20472;-76
2021/11/24 00:55:36;;;;;;;4.43;3.30;;;8.50;88.60;;;;;;5093218;28;20043;-75
2021/11/24 00:58:02;;;;;;;3.30;2.67;;;8.50;88.40;;;;;;5093490;28;20472;-75
2021/11/24 01:00:28;;;;;;;3.72;2.83;;;8.40;88.20;;;;;;5093445;28;20035;-75
2021/11/24 01:02:53;;;;;;;3.65;3.28;;;8.30;88.20;;;;;;5093514;28;20388;-75
2021/11/24 01:05:19;;;;;;;3.28;2.97;;;8.20;88.30;;;;;;5093399;28;20384;-76
2021/11/24 01:07:45;;;;;;;3.85;3.22;;;8.10;88.50;;;;;;5093979;28;20410;-75
2021/11/24 01:10:12;;;;;;;4.75;3.00;;;8.00;88.50;;;;;;5093527;28;20126;-75
2021/11/24 01:12:39;;;;;;;3.55;3.20;;;8.00;88.60;;;;;;5093355;28;20024;-75
2021/11/24 01:15:05;;;;;;;4.30;3.60;;;7.90;88.60;;;;;;5093274;28;20468;-75
2021/11/24 01:17:31;;;;;;;3.90;3.50;;;7.90;88.80;;;;;;5093089;28;20383;-75
2021/11/24 01:19:57;;;;;;;3.80;3.13;;;7.90;88.80;;;;;;5093173;28;20119;-75
2021/11/24 01:22:23;;;;;;;4.75;3.35;;;7.90;88.90;;;;;;5093027;28;20028;-75
2021/11/24 01:24:49;;;;;;;3.83;3.42;;;7.90;88.90;;;;;;5094255;28;20028;-75
2021/11/24 01:27:15;;;;;;;4.82;3.65;;;7.90;88.90;;;;;;5092866;28;20026;-76
2021/11/24 01:29:40;;;;;;;3.85;3.50;;;7.90;88.90;;;;;;5094113;28;20453;-76
2021/11/24 01:32:06;;;;;;;4.72;3.50;;;8.00;88.90;;;;;;5092900;28;20024;-75
2021/11/24 01:34:32;;;;;;;4.18;3.72;;;8.10;88.80;;;;;;5092731;28;20051;-76
2021/11/24 01:36:58;;;;;;;3.58;3.28;;;8.10;88.70;;;;;;5094037;28;20020;-75
2021/11/24 01:39:23;;;;;;;3.78;3.40;;;8.10;88.60;;;;;;5092670;28;20020;-75
2021/11/24 01:41:49;;;;;;;3.72;3.17;;;8.10;88.50;;;;;;5092681;28;20043;-76
2021/11/24 01:44:23;;;;;;;4.28;3.58;;;8.10;88.50;;;;;;5092561;28;20392;-76
2021/11/24 01:46:58;;;;;;;3.30;3.00;;;8.10;88.40;;;;;;5092486;28;20484;-75
2021/11/24 01:49:25;;;;;;;4.57;3.17;;;8.10;88.30;;;;;;5093846;28;20379;-75
2021/11/24 01:51:52;;;;;;;3.80;3.00;;;8.00;88.30;;;;;;5092486;28;20059;-75
2021/11/24 01:54:18;;;;;;;4.00;3.45;;;8.00;88.30;;;;;;5092470;28;20024;-75
2021/11/24 01:56:44;;;;;;;3.83;3.25;;;8.00;88.40;;;;;;5092329;28;20040;-75
2021/11/24 01:59:12;;;;;;;3.45;3.15;;;8.00;88.30;;;;;;5092421;28;20068;-75
2021/11/24 02:01:41;;;;;;;5.10;3.35;;;8.00;88.40;;;;;;5093653;28;20532;-76
2021/11/24 02:04:07;;;;;;;4.28;3.10;;;8.00;88.40;;;;;;5089594;28;20038;-75
2021/11/24 02:06:32;;;;;;;3.53;3.22;;;8.00;88.30;;;;;;5093405;28;20107;-75
2021/11/24 02:08:58;;;;;;;3.65;3.00;;;8.00;88.30;;;;;;5093702;28;20024;-75
2021/11/24 02:11:24;;;;;;;2.90;2.60;;;8.00;88.20;;;;;;5093822;28;20024;-75
2021/11/24 02:13:49;;;;;;;3.70;3.30;;;8.00;88.10;;;;;;5091819;28;20076;-75
2021/11/24 02:16:15;;;;;;;3.35;3.05;;;8.00;88.10;;;;;;5091933;28;20020;-76
2021/11/24 02:18:41;;;;;;;3.50;3.20;;;8.10;88.20;;;;;;5092140;28;20028;-75
2021/11/24 02:21:06;;;;;;;3.47;3.17;;;8.10;88.10;;;;;;5092059;28;20499;-75
2021/11/24 02:23:32;;;;;;;4.00;3.22;;;8.10;88.10;;;;;;5092120;28;20024;-75
2021/11/24 02:25:57;;;;;;;3.40;3.10;;;8.00;88.10;;;;;;5092323;28;20020;-75
2021/11/24 02:28:23;;;;;;;3.83;3.42;;;8.00;88.00;;;;;;5092054;28;20031;-75
2021/11/24 02:30:50;;;;;;;4.50;3.70;;;7.90;88.10;;;;;;5091819;28;20028;-75
2021/11/24 02:33:16;;;;;;;3.83;3.40;;;7.90;88.10;;;;;;5091808;28;20073;-75
2021/11/24 02:35:43;;;;;;;3.78;3.40;;;7.80;88.10;;;;;;5091900;28;20467;-75
2021/11/24 02:38:09;;;;;;;3.65;3.30;;;7.70;88.20;;;;;;5091887;28;20028;-75
2021/11/24 02:40:36;;;;;;;3.80;3.50;;;7.70;88.30;;;;;;5091756;28;20030;-75
2021/11/24 02:43:04;;;;;;;4.03;3.30;;;7.70;88.40;;;;;;5091718;28;20020;-75
2021/11/24 02:45:29;;;;;;;3.97;3.42;;;7.60;88.30;;;;;;5091601;28;20016;-76
2021/11/24 02:47:55;;;;;;;3.40;3.10;;;7.60;88.40;;;;;;5091580;28;20023;-75
2021/11/24 02:50:21;;;;;;;3.35;3.05;;;7.60;88.40;;;;;;5091411;28;20032;-75
2021/11/24 02:52:47;;;;;;;4.18;3.13;;;7.60;88.40;;;;;;5091477;28;20138;-75
2021/11/24 02:55:13;;;;;;;4.38;3.00;;;7.60;88.40;;;;;;5092617;28;20028;-75
2021/11/24 02:57:43;;;;;;;3.33;3.03;;;7.50;88.40;;;;;;5092705;28;20060;-75
2021/11/24 03:00:19;;;;;;;3.42;3.13;;;7.50;88.40;;;;;;5091382;28;20024;-75
2021/11/24 03:02:45;;;;;;;3.78;3.35;;;7.50;89.00;;;;;;5091425;28;20024;-75
2021/11/24 03:05:12;;;;;;;3.30;3.00;;;7.40;88.30;;;;;;5092634;28;20066;-75
2021/11/24 03:10:59;;;;;;;4.35;2.90;;;7.40;88.40;;;;;;5093051;28;20070;-76
2021/11/24 03:13:25;;;;;;;3.72;2.90;;;7.40;88.50;;;;;;5091418;28;20060;-75
2021/11/24 03:15:51;;;;;;;3.00;2.70;;;7.30;88.40;;;;;;5091218;28;20024;-75
2021/11/24 03:18:16;;;;;;;3.78;2.78;;;7.30;88.50;;;;;;5091350;28;20028;-75
2021/11/24 03:20:43;;;;;;;3.80;2.90;;;7.30;88.50;;;;;;5091306;28;20028;-76
2021/11/24 03:23:08;;;;;;;3.17;2.70;;;7.20;88.50;;;;;;5091539;28;20483;-75
2021/11/24 03:25:35;;;;;;;3.55;2.95;;;7.20;88.60;;;;;;5094380;28;20051;-75
2021/11/24 03:28:00;;;;;;;2.90;2.60;;;7.20;88.50;;;;;;5096521;28;20035;-76
2021/11/24 03:30:28;;;;;;;3.28;2.75;;;7.30;88.50;;;;;;5095306;28;20028;-75
2021/11/24 03:32:55;;;;;;;2.97;2.70;;;7.30;88.40;;;;;;5095322;28;20548;-74
2021/11/24 03:35:23;;;;;;;2.85;2.65;;;7.30;88.20;;;;;;5094986;28;20140;-77
2021/11/24 03:37:51;;;;;;;3.17;2.58;;;7.30;88.20;;;;;;5095182;28;20088;-74
2021/11/24 03:40:18;;;;;;;3.22;2.92;;;7.40;88.70;;;;;;5094889;28;20364;-75
2021/11/24 03:42:46;;;;;;;4.22;2.83;;;7.40;87.90;;;;;;5094938;28;20498;-76
2021/11/24 03:45:13;;;;;;;3.20;2.88;;;7.40;87.80;;;;;;5095266;28;20302;-75
2021/11/24 03:47:39;;;;;;;3.03;2.55;;;7.50;87.80;;;;;;5094786;28;20028;-75
2021/11/24 03:50:07;;;;;;;2.85;2.33;;;7.50;87.70;;;;;;5094817;28;20035;-76
2021/11/24 03:52:33;;;;;;;2.70;2.50;;;7.50;87.70;;;;;;5094779;28;20027;-74
2021/11/24 03:54:59;;;;;;;3.25;2.70;;;7.50;87.60;;;;;;5094522;28;20488;-75
2021/11/24 03:57:24;;;;;;;3.35;3.05;;;7.50;87.50;;;;;;5094567;28;20036;-75
2021/11/24 03:59:50;;;;;;;4.20;2.80;;;7.50;87.40;;;;;;5094628;28;20097;-75
2021/11/24 04:02:16;;;;;;;3.00;2.70;;;7.60;87.50;;;;;;5094453;28;20028;-75
2021/11/24 04:04:42;;;;;;;2.83;2.63;;;7.60;87.40;;;;;;5095849;28;20028;-75
2021/11/24 04:07:09;;;;;;;3.20;2.90;;;7.60;87.40;;;;;;5094396;28;20024;-74
2021/11/24 04:09:34;;;;;;;2.90;2.60;;;7.60;87.30;;;;;;5094473;28;20036;-75
2021/11/24 04:12:01;;;;;;;3.75;2.92;;;7.60;87.30;;;;;;5094329;28;20027;-75
2021/11/24 04:14:26;;;;;;;3.10;2.80;;;7.60;87.30;;;;;;5094667;28;20060;-75
2021/11/24 04:16:52;;;;;;;3.40;2.55;;;7.60;87.20;;;;;;5094127;28;20082;-75
2021/11/24 04:19:17;;;;;;;3.92;2.83;;;7.60;87.20;;;;;;5094205;28;20024;-75
2021/11/24 04:21:43;;;;;;;3.42;2.55;;;7.70;87.20;;;;;;5094075;28;20020;-75
2021/11/24 04:24:09;;;;;;;3.88;2.75;;;7.60;87.20;;;;;;5094137;28;20020;-75
2021/11/24 04:26:34;;;;;;;2.90;2.60;;;7.60;87.20;;;;;;5095525;28;20140;-75
2021/11/24 04:29:00;;;;;;;3.10;2.80;;;7.60;87.20;;;;;;5094309;28;20078;-75
2021/11/24 04:31:25;;;;;;;3.00;2.65;;;7.60;87.20;;;;;;5094042;28;20051;-76
2021/11/24 04:33:51;;;;;;;4.07;2.90;;;7.60;87.20;;;;;;5093987;28;20028;-75
2021/11/24 04:36:17;;;;;;;3.28;2.47;;;7.60;87.20;;;;;;5093348;28;20089;-75
2021/11/24 04:38:43;;;;;;;2.67;2.45;;;7.60;87.20;;;;;;5093830;28;20107;-75
2021/11/24 04:41:09;;;;;;;3.15;2.70;;;7.60;87.20;;;;;;5093751;28;20499;-75
2021/11/24 04:43:42;;;;;;;2.50;2.20;;;7.60;87.20;;;;;;5094093;28;20024;-75
2021/11/24 04:46:08;;;;;;;2.40;2.15;;;7.50;87.20;;;;;;5093801;28;20040;-75
2021/11/24 04:48:36;;;;;;;2.67;2.47;;;7.50;87.20;;;;;;5093721;28;20109;-74
2021/11/24 04:51:02;;;;;;;4.07;2.58;;;7.50;87.40;;;;;;5093714;28;20083;-74
2021/11/24 04:53:28;;;;;;;2.78;2.15;;;7.50;87.50;;;;;;5093789;28;20114;-75
2021/11/24 04:55:54;;;;;;;3.55;2.33;;;7.50;87.60;;;;;;5093473;28;20044;-76
2021/11/24 04:58:19;;;;;;;2.83;2.40;;;7.50;87.50;;;;;;5093553;28;20028;-75
2021/11/24 05:00:45;;;;;;;2.58;2.28;;;7.50;87.50;;;;;;5095152;28;20024;-75
2021/11/24 05:03:11;;;;;;;3.10;2.40;;;7.60;87.40;;;;;;5093398;28;20113;-75
2021/11/24 05:05:37;;;;;;;2.38;2.08;;;7.60;87.40;;;;;;5093637;28;20129;-75
2021/11/24 05:08:02;;;;;;;3.00;2.22;;;7.70;87.40;;;;;;5093180;28;20484;-75
2021/11/24 05:10:29;;;;;;;2.90;2.47;;;7.70;87.30;;;;;;5093012;28;20047;-75
2021/11/24 05:12:55;;;;;;;4.63;2.92;;;7.70;87.20;;;;;;5093351;28;20024;-75
2021/11/24 05:15:24;;;;;;;3.00;2.70;;;7.70;87.10;;;;;;5093109;28;20130;-75
2021/11/24 05:17:59;;;;;;;2.78;2.40;;;7.70;87.20;;;;;;5092892;28;20506;-75
2021/11/24 05:20:28;;;;;;;3.50;2.28;;;7.70;87.20;;;;;;5094209;28;20024;-75
2021/11/24 05:22:55;;;;;;;4.70;2.50;;;7.70;87.30;;;;;;5092722;28;20111;-75
2021/11/24 05:25:21;;;;;;;4.40;2.80;;;7.70;87.30;;;;;;5093095;28;20506;-75
2021/11/24 05:27:47;;;;;;;4.80;3.22;;;7.80;87.30;;;;;;5092704;28;20036;-75
2021/11/24 05:30:13;;;;;;;2.97;2.67;;;7.80;87.30;;;;;;5092662;28;20031;-75
2021/11/24 05:32:39;;;;;;;3.88;3.28;;;7.90;87.80;;;;;;5092673;28;20483;-75
2021/11/24 05:35:05;;;;;;;4.20;3.10;;;7.90;87.10;;;;;;5092820;28;20024;-75
2021/11/24 05:37:31;;;;;;;4.13;3.00;;;7.90;87.10;;;;;;5092817;28;20404;-74
2021/11/24 05:39:58;;;;;;;5.80;3.25;;;7.90;87.10;;;;;;5092972;28;20028;-75
2021/11/24 05:42:25;;;;;;;4.90;3.42;;;7.80;87.10;;;;;;5092869;28;20024;-75
2021/11/24 05:45:01;;;;;;;16.27;3.80;;;7.90;87.10;;;;;;5092483;28;20024;-75
2021/11/24 05:50:11;;;;;;;4.57;3.55;;;7.90;87.10;;;;;;5093813;28;20046;-75
2021/11/24 05:52:36;;;;;;;6.30;4.07;;;7.90;87.10;;;;;;5093907;28;20118;-75
2021/11/24 05:55:03;;;;;;;11.52;3.35;;;7.90;87.10;;;;;;5092062;28;20028;-75
2021/11/24 05:57:28;;;;;;;28.70;3.38;;;7.90;87.00;;;;;;5092339;28;20612;-75
2021/11/24 05:59:54;;;;;;;5.63;2.85;;;7.90;87.00;;;;;;5092220;28;20049;-75
2021/11/24 06:02:20;;;;;;;4.72;2.35;;;7.80;87.10;;;;;;5092134;28;20062;-75
2021/11/24 06:04:45;;;;;;;4.65;2.47;;;7.70;87.90;;;;;;5093592;28;20154;-75
2021/11/24 06:07:11;;;;;;;4.05;2.13;;;7.70;87.40;;;;;;5092038;28;20126;-74
2021/11/24 06:09:36;;;;;;;5.53;2.78;;;7.60;87.40;;;;;;5092018;28;20123;-75
2021/11/24 06:12:02;;;;;;;3.45;2.58;;;7.60;87.50;;;;;;5092028;28;20032;-75
2021/11/24 06:14:28;;;;;;;3.35;2.60;;;7.60;87.60;;;;;;5092181;28;20020;-75
2021/11/24 06:16:54;;;;;;;2.67;2.28;;;7.60;87.60;;;;;;5091871;28;20101;-76
2021/11/24 06:19:19;;;;;;;3.85;2.70;;;7.60;87.70;;;;;;5089053;28;20032;-75
2021/11/24 06:21:45;;;;;;;3.17;2.40;;;7.70;87.70;;;;;;5091866;28;20024;-75
2021/11/24 06:24:11;;;;;;;3.05;2.60;;;7.70;87.60;;;;;;5091821;28;20032;-75
2021/11/24 06:26:37;;;;;;;3.50;2.40;;;7.80;87.70;;;;;;5091869;28;20039;-74
2021/11/24 06:29:03;;;;;;;3.28;2.78;;;7.80;87.60;;;;;;5092323;28;20032;-75
2021/11/24 06:31:29;;;;;;;3.97;3.15;;;7.80;87.60;;;;;;5091824;28;20028;-75
2021/11/24 06:33:55;;;;;;;3.45;2.90;;;7.90;87.60;;;;;;5091715;28;20020;-75
2021/11/24 06:36:24;;;;;;;4.47;3.25;;;7.90;87.60;;;;;;5093348;28;20031;-75
2021/11/24 06:38:53;;;;;;;4.18;3.00;;;7.90;87.50;;;;;;5091596;28;20050;-75
2021/11/24 06:41:21;;;;;;;3.75;3.08;;;7.90;87.60;;;;;;5091633;28;20038;-76
2021/11/24 06:43:47;;;;;;;4.20;3.25;;;7.90;87.50;;;;;;5091754;28;20097;-74
2021/11/24 06:46:12;;;;;;;3.92;3.00;;;8.00;88.10;;;;;;5091555;28;20027;-75
2021/11/24 06:48:38;;;;;;;3.50;3.03;;;7.90;87.40;;;;;;5091802;28;20049;-75
2021/11/24 06:51:06;;;;;;;3.97;3.25;;;8.00;87.50;;;;;;5092968;28;20314;-75
2021/11/24 06:53:32;;;;;;;3.72;3.30;;;8.00;87.50;;;;;;5091694;28;20028;-75
2021/11/24 06:59:20;;;;;;;15.70;5.25;;;8.00;87.50;;;;;;5097711;28;20144;-74
2021/11/24 07:01:45;;;;;;;4.93;4.10;;;8.00;87.50;;;;;;5098704;28;20024;-74
2021/11/24 07:04:11;;;;;;;4.80;3.45;;;8.00;87.50;;;;;;5098270;28;20028;-74
2021/11/24 07:06:37;;;;;;;4.30;2.95;;;7.90;87.60;;;;;;5098392;28;20020;-74
2021/11/24 07:09:04;;;;;;;4.38;2.95;;;8.00;87.70;;;;;;5099835;28;20028;-73
2021/11/24 07:11:32;;;;;;;3.75;2.92;;;8.00;87.70;;;;;;5099385;28;20070;-76
2021/11/24 07:13:59;;;;;;;3.15;2.67;;;8.00;87.80;;;;;;5098120;28;20104;-74
2021/11/24 07:16:25;;;;;;;4.53;2.78;;;8.00;87.70;;;;;;5097938;28;20027;-74
2021/11/24 07:18:50;;;;;;;4.00;3.05;;;8.00;87.70;;;;;;5099379;28;20384;-74
2021/11/24 07:21:16;;;;;;;3.60;2.72;;;8.00;87.70;;;;;;5098014;28;20024;-74
2021/11/24 07:23:42;;;;;;;4.20;2.88;;;8.00;87.70;;;;;;5098417;28;20024;-75
2021/11/24 07:26:08;;;;;;;3.30;2.70;;;8.00;87.80;;;;;;5099384;28;20103;-75
2021/11/24 07:28:33;;;;;;;4.65;3.55;;;7.90;87.70;;;;;;5098088;28;20134;-76
2021/11/24 07:30:59;;;;;;;3.50;3.03;;;7.90;87.80;;;;;;5098106;28;20024;-75
2021/11/24 07:33:24;;;;;;;4.32;3.25;;;7.90;87.90;;;;;;5095015;28;20502;-74
2021/11/24 07:35:50;;;;;;;4.53;3.50;;;7.90;87.90;;;;;;5097874;28;20172;-74
2021/11/24 07:38:44;;;;;;;5.45;4.35;;;7.90;87.90;;;;;;5097993;28;20221;-74
2021/11/24 07:41:09;;;;;;;7.45;4.00;;;7.90;87.90;;;;;;5099292;28;20024;-74
2021/11/24 07:43:35;;;;;;;6.22;4.22;;;7.90;87.90;;;;;;5097733;28;20111;-74
2021/11/24 07:49:22;;;;;;;5.07;3.53;;;7.90;87.80;;;;;;5099636;28;20379;-74
2021/11/24 07:51:48;;;;;;;5.47;3.80;;;7.90;87.80;;;;;;5099209;28;20024;-74
2021/11/24 07:54:14;;;;;;;5.05;3.80;;;7.80;87.80;;;;;;5099081;28;20020;-76
2021/11/24 07:56:40;;;;;;;5.53;4.05;;;7.90;87.90;;;;;;5097432;28;20503;-75
2021/11/24 07:59:06;;;;;;;4.93;3.47;;;7.90;88.00;;;;;;5097897;28;20480;-74
2021/11/24 08:01:32;;;;;;;4.25;3.20;;;7.90;88.00;;;;;;5098777;28;20035;-74
2021/11/24 08:03:59;;;;;;;6.25;3.90;;;7.90;88.10;;;;;;5097891;28;20027;-74
2021/11/24 08:06:24;;;;;;;5.97;3.90;;;7.90;88.10;;;;;;5098098;28;20020;-75
2021/11/24 08:08:50;;;;;;;7.80;4.85;;;7.90;88.00;;;;;;5097860;28;20073;-74
2021/11/24 08:11:15;;;;;;;8.70;5.40;;;8.00;88.00;;;;;;5094243;28;20027;-74
2021/11/24 08:13:41;;;;;;;10.40;5.10;;;8.00;88.00;;;;;;5094394;28;20055;-74
2021/11/24 08:19:29;;;;;;;6.35;4.40;;;8.10;88.00;;;;;;5095971;28;20391;-74
2021/11/24 08:21:54;;;;;;;5.75;4.10;;;8.10;87.90;;;;;;5094228;28;20024;-76
2021/11/24 08:24:22;;;;;;;6.95;4.65;;;8.20;87.80;;;;;;5094543;28;20130;-74
2021/11/24 08:26:48;;;;;;;6.93;4.13;;;8.20;87.80;;;;;;5094041;28;20024;-74
2021/11/24 08:32:36;;;;;;;6.90;4.07;;;8.30;87.70;;;;;;5095569;28;20026;-74
2021/11/24 08:35:05;;;;;;;7.40;4.32;;;8.30;87.60;;;;;;5090953;28;20035;-75
2021/11/24 08:37:31;;;;;;;8.95;4.72;;;8.40;87.60;;;;;;5094864;28;20109;-75
2021/11/24 08:39:56;;;;;;;8.85;5.20;;;8.50;88.10;;;;;;5093982;28;20464;-74
2021/11/24 08:42:25;;;;;;;7.15;5.18;;;8.50;87.50;;;;;;5095155;28;20054;-77
2021/11/24 08:44:52;;;;;;;7.90;5.22;;;8.50;87.50;;;;;;5093869;28;20012;-77
2021/11/24 08:47:18;;;;;;;7.53;5.05;;;8.60;87.50;;;;;;5093791;28;20106;-77
2021/11/24 08:49:44;;;;;;;8.38;5.20;;;8.60;87.50;;;;;;5093511;28;20028;-74
2021/11/24 08:52:10;;;;;;;9.65;5.30;;;8.70;87.40;;;;;;5093601;28;20069;-77
2021/11/24 08:54:37;;;;;;;7.68;5.25;;;8.70;87.40;;;;;;5093617;28;20024;-76
2021/11/24 08:57:04;;;;;;;7.47;5.30;;;8.70;87.40;;;;;;5093270;28;20040;-77
2021/11/24 08:59:29;;;;;;;7.53;5.10;;;8.80;87.40;;;;;;5094060;28;20012;-78
2021/11/24 09:01:55;;;;;;;7.97;6.00;;;8.90;87.30;;;;;;5095526;28;20507;-78
2021/11/24 09:04:21;;;;;;;8.52;5.85;;;8.90;87.20;;;;;;5094821;28;20024;-76
2021/11/24 09:06:47;;;;;;;8.30;6.32;;;9.00;87.20;;;;;;5093727;28;20038;-78
2021/11/24 09:09:17;;;;;;;8.73;6.05;;;9.00;87.10;;;;;;5093865;28;20062;-79
2021/11/24 09:11:43;;;;;;;11.00;6.82;;;9.10;87.00;;;;;;5093893;28;20084;-77
2021/11/24 09:14:08;;;;;;;8.23;5.97;;;9.10;87.00;;;;;;5094577;28;20047;-77
2021/11/24 09:16:34;;;;;;;9.15;6.22;;;9.20;87.00;;;;;;5093832;28;20110;-77
2021/11/24 09:19:00;;;;;;;9.10;6.30;;;9.20;86.90;;;;;;5093827;28;20020;-78
2021/11/24 09:24:53;;;;;;;9.90;5.93;;;9.30;86.80;;;;;;5095176;28;20023;-76
2021/11/24 09:27:28;;;;;;;8.63;5.68;;;9.30;86.70;;;;;;5093743;28;20065;-77
2021/11/24 09:29:54;;;;;;;8.05;5.68;;;9.40;86.70;;;;;;5093581;28;20020;-77
2021/11/24 09:32:20;;;;;;;7.35;5.55;;;9.40;86.60;;;;;;5092973;28;20520;-74
2021/11/24 09:34:45;;;;;;;8.63;5.82;;;9.40;86.60;;;;;;5092582;28;20162;-71
2021/11/24 09:37:11;;;;;;;8.27;6.03;;;9.40;86.50;;;;;;5092450;28;20036;-75
2021/11/24 09:39:37;;;;;;;6.78;5.45;;;9.40;86.60;;;;;;5094032;28;20081;-76
2021/11/24 09:42:04;;;;;;;10.02;6.43;;;9.40;86.60;;;;;;5092965;28;20024;-78
2021/11/24 09:44:32;;;;;;;7.78;5.22;;;9.40;86.60;;;;;;5092352;28;20020;-78
2021/11/24 09:46:58;;;;;;;6.15;5.18;;;9.40;86.50;;;;;;5092315;28;20035;-76
2021/11/24 09:52:27;;;;;;;7.20;5.33;;;9.50;86.60;;;;;;5094234;28;20392;-77
2021/11/24 09:54:54;;;;;;;8.90;5.53;;;9.50;86.50;;;;;;5093697;28;20258;-78
2021/11/24 09:57:24;;;;;;;7.60;6.43;;;9.40;86.40;;;;;;5093679;28;20043;-79
2021/11/24 09:59:51;;;;;;;7.70;5.93;;;9.40;86.40;;;;;;5092627;28;20077;-80
2021/11/24 10:02:18;;;;;;;7.80;5.70;;;9.40;86.40;;;;;;5093112;28;20417;-80
2021/11/24 10:04:45;;;;;;;6.78;5.80;;;9.40;86.40;;;;;;5092427;28;20016;-78
2021/11/24 10:07:12;;;;;;;8.32;6.60;;;9.40;86.30;;;;;;5092171;28;20024;-77
2021/11/24 10:09:40;;;;;;;9.45;7.35;;;9.40;86.30;;;;;;5093586;28;20074;-77
2021/11/24 10:12:06;;;;;;;12.15;8.13;;;9.40;86.30;;;;;;5092118;28;20031;-78
2021/11/24 10:14:32;;;;;;;12.23;8.43;;;9.40;86.20;;;;;;5092244;28;20023;-78
2021/11/24 10:17:09;;;;;;;14.55;9.77;;;9.40;86.30;;;;;;5092182;28;20054;-78
2021/11/24 10:19:35;;;;;;;15.52;10.63;;;9.50;86.30;;;;;;5091906;28;20391;-77
2021/11/24 10:22:05;;;;;;;14.25;8.98;;;9.50;86.30;;;;;;5091811;28;20034;-78
2021/11/24 10:24:42;;;;;;;14.32;8.82;;;9.50;86.30;;;;;;5091840;28;20024;-78
2021/11/24 10:27:11;;;;;;;14.07;7.85;;;9.50;86.20;;;;;;5091870;28;20024;-77
2021/11/24 10:29:38;;;;;;;10.60;6.78;;;9.60;86.20;;;;;;5093368;28;20027;-77
2021/11/24 10:32:10;;;;;;;7.95;5.18;;;9.70;86.20;;;;;;5091564;28;20028;-77
2021/11/24 10:34:41;;;;;;;3.22;2.78;;;9.70;86.00;;;;;;5091037;28;20019;-77
2021/11/24 10:40:43;;;;;;;1.73;1.60;;;9.90;85.50;;;;;;5093150;28;20022;-77
2021/11/24 10:43:14;;;;;;;2.13;1.92;;;10.00;85.20;;;;;;5091335;28;20025;-75
2021/11/24 10:45:52;;;;;;;3.08;2.10;;;10.10;85.00;;;;;;5091221;28;20031;-76
2021/11/24 10:48:25;;;;;;;2.42;1.83;;;10.20;84.80;;;;;;5091643;28;20093;-75
2021/11/24 10:50:51;;;;;;;4.10;2.30;;;10.20;84.60;;;;;;5091449;28;20024;-76
2021/11/24 10:53:20;;;;;;;3.30;2.30;;;10.20;84.50;;;;;;5091306;28;20444;-76
2021/11/24 10:55:46;;;;;;;2.58;2.10;;;10.10;84.40;;;;;;5090997;28;20051;-76
2021/11/24 10:58:18;;;;;;;3.38;1.90;;;10.20;84.30;;;;;;5091354;28;20020;-75
2021/11/24 11:00:46;;;;;;;3.58;1.98;;;10.20;84.30;;;;;;5091201;28;20020;-75
2021/11/24 11:03:12;;;;;;;3.70;2.53;;;10.20;84.20;;;;;;5091301;28;20116;-75
2021/11/24 11:05:45;;;;;;;2.10;1.80;;;10.20;84.10;;;;;;5091198;28;20047;-76
2021/11/24 11:08:15;;;;;;;2.28;1.48;;;10.20;84.00;;;;;;5092539;28;20035;-75
2021/11/24 11:10:47;;;;;;;2.03;1.17;;;10.30;84.00;;;;;;5088754;28;20028;-76
2021/11/24 11:13:15;;;;;;;3.15;1.20;;;10.30;83.90;;;;;;5091338;28;20111;-76
2021/11/24 11:15:54;;;;;;;1.23;0.90;;;10.40;83.80;;;;;;5091359;28;20162;-74
2021/11/24 11:18:27;;;;;;;2.60;0.95;;;10.40;83.60;;;;;;5091699;28;20084;-75
2021/11/24 11:20:57;;;;;;;1.23;1.05;;;10.40;83.40;;;;;;5092624;28;20028;-75
2021/11/24 11:23:32;;;;;;;1.17;1.08;;;10.40;83.20;;;;;;5091368;28;20020;-76
2021/11/24 11:26:08;;;;;;;1.67;1.20;;;10.40;83.10;;;;;;5091293;28;20051;-75
2021/11/24 11:28:42;;;;;;;1.70;1.27;;;10.40;83.10;;;;;;5091286;28;20021;-75
2021/11/24 11:31:10;;;;;;;1.30;0.90;;;10.50;83.10;;;;;;5091209;28;20028;-75
2021/11/24 11:33:44;;;;;;;3.83;1.20;;;10.50;82.90;;;;;;5091628;28;20036;-75
2021/11/24 11:36:12;;;;;;;1.38;1.27;;;10.50;82.80;;;;;;5091044;28;20039;-75
2021/11/24 11:38:47;;;;;;;1.52;1.23;;;10.50;82.70;;;;;;5091185;28;20379;-76
2021/11/24 11:41:14;;;;;;;2.47;1.17;;;10.50;82.60;;;;;;5091149;28;20024;-75
2021/11/24 11:43:43;;;;;;;1.13;1.02;;;10.40;83.20;;;;;;5091036;28;20375;-75
2021/11/24 11:46:24;;;;;;;1.52;1.00;;;10.40;82.60;;;;;;5093170;28;20444;-75
2021/11/24 11:48:51;;;;;;;1.73;1.02;;;10.40;82.50;;;;;;5092515;28;20093;-75
2021/11/24 11:51:32;;;;;;;2.65;1.25;;;10.30;82.40;;;;;;5094896;28;20425;-75
2021/11/24 11:54:00;;;;;;;2.72;1.27;;;10.30;82.40;;;;;;5096109;28;20016;-75
2021/11/24 11:56:36;;;;;;;1.30;1.00;;;10.30;82.50;;;;;;5094377;28;20083;-75
2021/11/24 11:59:09;;;;;;;1.58;1.05;;;10.30;82.40;;;;;;5094635;28;20028;-75
2021/11/24 12:01:42;;;;;;;1.77;1.05;;;10.30;82.30;;;;;;5094865;28;20027;-75
2021/11/24 12:04:21;;;;;;;1.20;1.10;;;10.30;82.20;;;;;;5094664;28;20028;-75
2021/11/24 12:07:05;;;;;;;1.67;1.30;;;10.40;82.20;;;;;;5094406;28;20114;-75
2021/11/24 12:09:41;;;;;;;1.98;1.30;;;10.40;82.00;;;;;;5094402;28;20024;-74
2021/11/24 12:15:28;;;;;;;1.73;1.30;;;10.50;81.80;;;;;;5095675;28;20426;-76
2021/11/24 12:18:11;;;;;;;1.63;1.42;;;10.50;81.70;;;;;;5094067;28;20024;-74
2021/11/24 12:20:40;;;;;;;3.20;1.70;;;10.60;81.40;;;;;;5094195;28;20028;-75
2021/11/24 12:23:12;;;;;;;3.08;1.83;;;10.50;81.40;;;;;;5094213;28;20028;-75
2021/11/24 12:28:59;;;;;;;2.22;1.60;;;10.50;81.20;;;;;;5095647;28;20039;-75
2021/11/24 12:31:27;;;;;;;2.35;1.50;;;10.50;81.20;;;;;;5094223;28;20395;-74
2021/11/24 12:33:53;;;;;;;2.00;1.60;;;10.60;81.20;;;;;;5093936;28;20120;-74
2021/11/24 12:39:41;;;;;;;8.20;5.38;;;10.60;81.00;;;;;;5095261;28;20092;-74
2021/11/24 12:42:08;;;;;;;11.00;7.40;;;10.60;81.00;;;;;;5093581;28;20016;-74
2021/11/24 12:44:33;;;;;;;13.55;7.35;;;10.60;81.10;;;;;;5093741;28;20028;-74
2021/11/24 12:46:59;;;;;;;11.98;7.30;;;10.60;81.20;;;;;;5093670;28;20051;-74
2021/11/24 12:49:25;;;;;;;11.48;7.40;;;10.60;81.20;;;;;;5093564;28;20066;-74
2021/11/24 12:51:53;;;;;;;10.68;6.78;;;10.60;81.30;;;;;;5093508;28;20123;-74
2021/11/24 12:54:22;;;;;;;10.95;6.28;;;10.60;81.40;;;;;;5093599;28;20107;-77
2021/11/24 12:56:55;;;;;;;9.25;5.90;;;10.60;81.40;;;;;;5093010;28;20090;-74
2021/11/24 12:59:24;;;;;;;12.38;6.30;;;10.60;81.40;;;;;;5093442;28;20110;-75
2021/11/24 13:02:01;;;;;;;11.27;6.00;;;10.60;81.40;;;;;;5093459;28;20038;-74
2021/11/24 13:04:38;;;;;;;11.07;7.25;;;10.60;81.40;;;;;;5093332;28;20028;-75
2021/11/24 13:07:06;;;;;;;12.73;8.10;;;10.60;82.00;;;;;;5093307;28;20035;-77
2021/11/24 13:09:37;;;;;;;13.13;8.30;;;10.60;81.40;;;;;;5093231;28;20024;-76
2021/11/24 13:12:14;;;;;;;12.43;8.18;;;10.60;81.40;;;;;;5093228;28;20511;-76
2021/11/24 13:14:45;;;;;;;12.82;8.27;;;10.60;81.50;;;;;;5092986;28;20024;-75
2021/11/24 13:17:20;;;;;;;13.88;8.77;;;10.60;81.50;;;;;;5092896;28;20028;-77
2021/11/24 13:19:50;;;;;;;15.15;8.73;;;10.60;81.50;;;;;;5092852;28;20024;-75
2021/11/24 13:22:30;;;;;;;15.05;9.13;;;10.60;81.60;;;;;;5092856;28;20078;-76
2021/11/24 13:25:11;;;;;;;11.93;8.20;;;10.50;81.60;;;;;;5092791;28;20027;-76
2021/11/24 13:27:42;;;;;;;14.00;9.23;;;10.50;81.70;;;;;;5093014;28;20032;-77
2021/11/24 13:30:12;;;;;;;11.52;8.10;;;10.50;81.70;;;;;;5092694;28;20024;-74
2021/11/24 13:32:53;;;;;;;13.45;8.50;;;10.50;81.70;;;;;;5092980;28;20565;-76
2021/11/24 13:35:19;;;;;;;11.32;7.78;;;10.50;81.70;;;;;;5092876;28;20020;-75
2021/11/24 13:37:47;;;;;;;15.00;8.20;;;10.50;81.70;;;;;;5092860;28;20024;-76